createdAt,value
2022-08-17T00:02:27.742Z,97944.22
2022-08-17T00:05:01.937Z,97949.50
2022-08-17T00:11:29.258Z,97946.16
2022-08-17T00:14:09.036Z,97949.94
2022-08-17T00:27:05.918Z,97949.13
2022-08-17T00:29:46.168Z,97949.13
2022-08-17T00:33:12.645Z,97949.97
2022-08-17T00:35:26.936Z,97942.44
2022-08-17T00:38:00.858Z,97947.25
2022-08-17T00:54:22.008Z,97939.16
2022-08-17T00:57:02.613Z,97932.44
2022-08-17T00:59:55.906Z,97931.00
2022-08-17T01:02:50.911Z,97932.50
2022-08-17T01:05:37.953Z,97940.47
2022-08-17T01:08:22.473Z,97936.25
2022-08-17T01:21:31.939Z,97949.72
2022-08-17T01:24:14.939Z,97948.47
2022-08-17T01:26:49.142Z,97942.63
2022-08-17T01:29:23.962Z,97943.88
2022-08-17T01:32:02.740Z,97939.69
2022-08-17T01:34:43.704Z,97945.38
2022-08-17T01:48:03.940Z,97957.38
2022-08-17T01:50:40.920Z,97955.69
2022-08-17T01:53:27.960Z,97963.28
2022-08-17T01:56:10.041Z,97966.19
2022-08-17T01:58:50.980Z,97961.19
2022-08-17T02:15:28.905Z,97948.38
2022-08-17T02:18:11.006Z,97946.47
2022-08-17T02:20:44.880Z,97943.75
2022-08-17T02:23:20.000Z,97955.09
2022-08-17T02:25:58.299Z,97949.00
2022-08-17T02:28:39.981Z,97945.69
2022-08-17T02:41:51.981Z,97935.63
2022-08-17T02:44:40.010Z,97934.34
2022-08-17T02:47:21.121Z,97939.78
2022-08-17T02:49:56.171Z,97940.25
2022-08-17T02:52:43.388Z,97941.28
2022-08-17T03:06:39.000Z,97949.25
2022-08-17T03:09:14.708Z,97945.91
2022-08-17T03:11:48.980Z,97941.69
2022-08-17T03:14:26.859Z,97944.66
2022-08-17T03:17:01.959Z,97947.38
2022-08-17T03:19:35.920Z,97942.97
2022-08-17T03:33:21.880Z,97953.03
2022-08-17T03:36:06.019Z,97953.47
2022-08-17T03:38:40.090Z,97953.22
2022-08-17T03:41:13.964Z,97957.63
2022-08-17T03:43:47.839Z,97941.91
2022-08-17T03:46:27.866Z,97950.88
2022-08-17T03:49:07.241Z,97954.03
2022-08-17T04:02:18.963Z,97955.06
2022-08-17T04:05:00.001Z,97949.38
2022-08-17T04:07:34.020Z,97940.19
2022-08-17T04:10:08.000Z,97951.06
2022-08-17T04:12:49.120Z,97942.69
2022-08-17T04:29:12.000Z,97951.91
2022-08-17T04:31:46.023Z,97951.91
2022-08-17T04:34:19.989Z,97953.16
2022-08-17T04:36:54.244Z,97952.53
2022-08-17T04:39:28.053Z,97947.91
2022-08-17T04:56:04.960Z,97961.72
2022-08-17T04:58:46.010Z,97963.41
2022-08-17T05:01:24.519Z,97971.78
2022-08-17T05:04:33.611Z,97969.91
2022-08-17T05:07:03.081Z,97971.56
2022-08-17T05:09:36.981Z,97967.38
2022-08-17T05:22:57.004Z,97971.63
2022-08-17T05:25:36.205Z,97975.81
2022-08-17T05:28:19.328Z,97979.56
2022-08-17T05:31:02.981Z,97970.78
2022-08-17T05:33:47.028Z,97973.50
2022-08-17T05:49:49.080Z,97985.09
2022-08-17T05:52:38.987Z,97988.44
2022-08-17T05:55:25.541Z,97992.47
2022-08-17T05:58:24.034Z,97993.91
2022-08-17T06:01:09.860Z,97994.34
2022-08-17T06:04:00.983Z,97994.34
2022-08-17T06:14:15.901Z,98000.63
2022-08-17T06:17:07.002Z,98005.03
2022-08-17T06:19:48.589Z,98006.06
2022-08-17T06:22:39.001Z,98014.06
2022-08-17T06:25:19.113Z,98014.06
2022-08-17T06:28:08.981Z,98016.78
2022-08-17T06:41:38.980Z,98018.69
2022-08-17T06:44:43.730Z,98027.91
2022-08-17T06:47:37.021Z,98024.13
2022-08-17T06:50:21.722Z,98027.06
2022-08-17T06:53:11.051Z,98029.16
2022-08-17T07:09:48.969Z,98031.94
2022-08-17T07:12:36.021Z,98030.44
2022-08-17T07:15:15.421Z,98032.09
2022-08-17T07:17:56.981Z,98028.53
2022-08-17T07:20:30.881Z,98030.22
2022-08-17T07:23:15.040Z,98035.66
2022-08-17T07:36:34.663Z,98028.22
2022-08-17T07:39:10.041Z,98028.22
2022-08-17T07:41:57.722Z,98032.41
2022-08-17T07:44:53.729Z,98022.69
2022-08-17T07:47:40.009Z,98026.69
2022-08-17T08:01:13.843Z,98014.59
2022-08-17T08:03:51.808Z,98019.66
2022-08-17T08:06:33.020Z,98014.81
2022-08-17T08:09:06.800Z,98008.28
2022-08-17T08:11:44.442Z,98019.03
2022-08-17T08:14:31.260Z,98022.59
2022-08-17T08:27:52.091Z,98032.19
2022-08-17T08:30:33.985Z,98030.75
2022-08-17T08:33:33.509Z,98025.88
2022-08-17T08:37:14.376Z,98026.28
2022-08-17T08:39:44.120Z,98023.34
2022-08-17T08:42:38.041Z,98017.41
2022-08-17T08:56:00.022Z,98017.91
2022-08-17T08:58:47.522Z,98029.81
2022-08-17T09:01:41.922Z,98020.47
2022-08-17T09:05:12.987Z,98020.25
2022-08-17T09:08:05.982Z,98019.50
2022-08-17T09:21:35.021Z,98016.09
2022-08-17T09:24:20.575Z,98010.94
2022-08-17T09:27:08.983Z,98012.91
2022-08-17T09:29:49.780Z,98020.84
2022-08-17T09:32:41.020Z,98020.97
2022-08-17T09:35:22.181Z,98019.00
2022-08-17T09:48:36.986Z,98015.03
2022-08-17T09:51:29.022Z,98013.78
2022-08-17T09:54:34.767Z,98018.03
2022-08-17T09:57:32.005Z,98014.56
2022-08-17T10:00:20.901Z,98005.03
2022-08-17T10:03:36.863Z,98011.97
2022-08-17T10:16:57.983Z,98006.69
2022-08-17T10:19:43.949Z,98008.63
2022-08-17T10:22:38.181Z,98014.34
2022-08-17T10:25:23.794Z,98011.00
2022-08-17T10:28:20.385Z,98008.97
2022-08-17T10:41:41.246Z,98013.84
2022-08-17T10:44:28.623Z,98008.00
2022-08-17T10:47:24.020Z,98015.28
2022-08-17T10:50:47.220Z,98011.31
2022-08-17T10:54:01.043Z,98007.16
2022-08-17T11:11:05.988Z,98004.91
2022-08-17T11:14:20.048Z,97995.34
2022-08-17T11:17:16.183Z,97998.72
2022-08-17T11:21:01.068Z,98002.88
2022-08-17T11:24:19.122Z,98004.16
2022-08-17T11:37:47.921Z,97987.69
2022-08-17T11:41:12.006Z,97995.22
2022-08-17T11:44:26.199Z,97985.88
2022-08-17T11:47:22.839Z,97992.22
2022-08-17T12:01:36.001Z,97979.41
2022-08-17T12:04:28.769Z,97983.22
2022-08-17T12:07:52.279Z,97973.41
2022-08-17T12:10:33.749Z,97971.09
2022-08-17T12:13:22.115Z,97973.81
2022-08-17T12:30:01.995Z,97966.22
2022-08-17T12:32:44.015Z,97957.06
2022-08-17T12:35:25.018Z,97960.78
2022-08-17T12:38:06.055Z,97966.22
2022-08-17T12:40:39.897Z,97961.84
2022-08-17T12:43:27.015Z,97958.41
2022-08-17T12:56:41.023Z,97961.63
2022-08-17T12:59:16.175Z,97960.94
2022-08-17T13:02:11.120Z,97953.03
2022-08-17T13:04:46.495Z,97955.31
2022-08-17T13:07:38.054Z,97953.78
2022-08-17T13:23:48.837Z,97943.59
2022-08-17T13:26:41.044Z,97936.97
2022-08-17T13:29:24.705Z,97938.06
2022-08-17T13:32:26.816Z,97944.16
2022-08-17T13:49:10.956Z,97929.63
2022-08-17T13:51:54.295Z,97925.78
2022-08-17T13:54:33.804Z,97926.69
2022-08-17T13:57:29.055Z,97926.47
2022-08-17T14:00:18.377Z,97919.34
2022-08-17T14:02:59.095Z,97920.78
2022-08-17T14:16:12.123Z,97929.72
2022-08-17T14:18:56.995Z,97932.25
2022-08-17T14:21:38.077Z,97940.56
2022-08-17T14:24:25.775Z,97937.78
2022-08-17T14:27:09.061Z,97932.25
2022-08-17T14:29:43.016Z,97935.59
2022-08-17T14:42:38.996Z,97933.06
2022-08-17T14:45:30.487Z,97942.19
2022-08-17T14:48:07.036Z,97944.97
2022-08-17T14:50:42.085Z,97950.25
2022-08-17T14:53:16.384Z,97946.09
2022-08-17T15:09:31.997Z,97947.53
2022-08-17T15:12:16.765Z,97944.75
2022-08-17T15:14:57.086Z,97939.50
2022-08-17T15:17:44.333Z,97936.16
2022-08-17T15:20:36.917Z,97928.69
2022-08-17T15:23:14.377Z,97917.88
2022-08-17T15:36:13.958Z,97903.47
2022-08-17T15:38:54.078Z,97913.38
2022-08-17T15:41:28.108Z,97914.47
2022-08-17T15:44:03.057Z,97910.84
2022-08-17T15:46:36.957Z,97921.09
2022-08-17T15:49:11.078Z,97914.16
2022-08-17T16:03:13.969Z,97924.22
2022-08-17T16:05:33.824Z,97930.25
2022-08-17T16:08:08.036Z,97936.03
2022-08-17T16:10:42.017Z,97931.06
2022-08-17T16:13:17.574Z,97934.06
2022-08-17T16:15:57.100Z,97930.78
2022-08-17T16:18:42.057Z,97918.88
2022-08-17T16:31:18.017Z,97897.63
2022-08-17T16:34:15.530Z,97899.00
2022-08-17T16:36:57.059Z,97892.69
2022-08-17T16:39:31.067Z,97896.28
2022-08-17T16:42:05.057Z,97892.75
2022-08-17T16:44:39.057Z,97896.69
2022-08-17T16:57:31.017Z,97887.75
2022-08-17T17:00:16.096Z,97892.69
2022-08-17T17:02:49.954Z,97902.03
2022-08-17T17:05:44.016Z,97903.94
2022-08-17T17:08:27.923Z,97912.25
2022-08-17T17:25:10.037Z,97900.06
2022-08-17T17:28:00.476Z,97899.38
2022-08-17T17:31:02.062Z,97901.47
2022-08-17T17:33:44.558Z,97899.44
2022-08-17T17:36:33.100Z,97905.69
2022-08-17T17:39:13.877Z,97904.75
2022-08-17T17:49:29.076Z,97923.94
2022-08-17T17:52:19.470Z,97931.81
2022-08-17T17:55:16.067Z,97939.13
2022-08-17T17:58:06.313Z,97945.63
2022-08-17T18:00:56.036Z,97942.50
2022-08-17T18:03:56.977Z,97945.91
2022-08-17T18:17:02.997Z,97953.97
2022-08-17T18:19:43.016Z,97954.16
2022-08-17T18:22:20.097Z,97952.44
2022-08-17T18:25:02.076Z,97955.13
2022-08-17T18:27:38.980Z,97951.72
2022-08-17T18:30:34.097Z,97948.28
2022-08-17T18:44:08.056Z,97953.97
2022-08-17T18:46:42.237Z,97950.53
2022-08-17T18:49:34.076Z,97956.78
2022-08-17T18:52:15.011Z,97959.22
2022-08-17T18:55:14.079Z,97961.88
2022-08-17T18:57:51.866Z,97966.22
2022-08-17T19:10:31.997Z,97946.31
2022-08-17T19:13:36.079Z,97943.25
2022-08-17T19:16:19.817Z,97944.81
2022-08-17T19:19:17.077Z,97940.91
2022-08-17T19:21:57.139Z,97946.88
2022-08-17T19:24:47.526Z,97950.13
2022-08-17T19:38:13.422Z,97936.09
2022-08-17T19:41:03.134Z,97934.94
2022-08-17T19:44:11.056Z,97932.69
2022-08-17T19:46:56.249Z,97932.34
2022-08-17T19:49:57.062Z,97933.06
2022-08-17T20:03:27.064Z,97927.72
2022-08-17T20:06:13.131Z,97927.38
2022-08-17T20:09:05.656Z,97933.13
2022-08-17T20:11:47.137Z,97930.84
2022-08-17T20:14:37.059Z,97930.28
2022-08-17T20:17:12.677Z,97928.81
2022-08-17T20:19:59.077Z,97932.91
2022-08-17T20:30:14.036Z,97923.03
2022-08-17T20:33:01.099Z,97928.16
2022-08-17T20:35:39.757Z,97927.56
2022-08-17T20:38:48.276Z,97930.81
2022-08-17T20:41:27.456Z,97928.53
2022-08-17T20:44:11.121Z,97920.75
2022-08-17T20:57:54.137Z,97916.00
2022-08-17T21:00:44.877Z,97913.75
2022-08-17T21:03:54.119Z,97908.13
2022-08-17T21:06:28.998Z,97918.75
2022-08-17T21:09:35.359Z,97909.09
2022-08-17T21:23:31.119Z,97928.44
2022-08-17T21:26:20.458Z,97931.63
2022-08-17T21:29:31.779Z,97932.34
2022-08-17T21:32:19.296Z,97924.81
2022-08-17T21:35:50.078Z,97918.09
2022-08-17T21:38:36.056Z,97934.44
2022-08-17T21:51:36.038Z,97955.41
2022-08-17T21:54:34.060Z,97955.28
2022-08-17T21:57:18.436Z,97962.06
2022-08-17T22:00:04.057Z,97963.81
2022-08-17T22:02:41.878Z,97966.91
2022-08-17T22:05:22.138Z,97968.41
2022-08-17T22:18:35.099Z,97971.66
2022-08-17T22:21:09.119Z,97963.25
2022-08-17T22:23:48.140Z,97976.69
2022-08-17T22:26:26.117Z,97972.28
2022-08-17T22:29:11.138Z,97972.28
2022-08-17T22:46:00.064Z,97964.38
2022-08-17T22:48:41.147Z,97958.06
2022-08-17T22:51:20.659Z,97961.88
2022-08-17T22:54:17.150Z,97964.84
2022-08-17T22:57:01.238Z,97958.97
2022-08-17T22:59:51.142Z,97965.53
2022-08-17T23:10:23.050Z,97968.56
2022-08-17T23:13:08.771Z,97969.06
2022-08-17T23:15:42.930Z,97962.97
2022-08-17T23:18:17.111Z,97959.63
2022-08-17T23:20:51.230Z,97959.00
2022-08-17T23:23:25.114Z,97955.91
2022-08-17T23:37:19.098Z,97949.28
2022-08-17T23:39:53.040Z,97947.63
2022-08-17T23:42:27.127Z,97947.63
2022-08-17T23:45:01.068Z,97947.84
2022-08-17T23:47:35.507Z,97951.06
2022-08-17T23:50:10.389Z,97952.38
